createdAt,value
2023-02-24T00:01:25.190Z,101636.91
2023-02-24T00:03:53.440Z,101638.59
2023-02-24T00:06:20.378Z,101635.78
2023-02-24T00:08:47.662Z,101638.88
2023-02-24T00:11:17.830Z,101642.53
2023-02-24T00:13:48.338Z,101635.53
2023-02-24T00:16:17.623Z,101638.97
2023-02-24T00:18:45.666Z,101630.50
2023-02-24T00:21:15.276Z,101629.75
2023-02-24T00:23:43.192Z,101630.88
2023-02-24T00:26:11.104Z,101620.47
2023-02-24T00:28:38.378Z,101620.78
2023-02-24T00:31:08.616Z,101621.06
2023-02-24T00:33:35.637Z,101608.47
2023-02-24T00:36:05.512Z,101610.72
2023-02-24T00:38:36.066Z,101608.53
2023-02-24T00:41:08.621Z,101613.09
2023-02-24T00:43:37.497Z,101608.59
2023-02-24T00:46:11.542Z,101596.78
2023-02-24T00:48:42.234Z,101598.47
2023-02-24T00:51:10.561Z,101591.16
2023-02-24T00:53:39.213Z,101591.47
2023-02-24T00:56:07.445Z,101572.69
2023-02-24T00:58:35.509Z,101577.16
2023-02-24T01:01:05.469Z,101585.13
2023-02-24T01:03:32.351Z,101574.16
2023-02-24T01:06:03.337Z,101569.44
2023-02-24T01:08:31.042Z,101567.47
2023-02-24T01:11:02.218Z,101557.13
2023-02-24T01:13:31.262Z,101557.50
2023-02-24T01:16:02.509Z,101542.06
2023-02-24T01:18:31.344Z,101542.97
2023-02-24T01:20:59.418Z,101535.97
2023-02-24T01:23:26.295Z,101534.34
2023-02-24T01:25:53.746Z,101525.69
2023-02-24T01:28:20.628Z,101522.03
2023-02-24T01:30:49.789Z,101533.34
2023-02-24T01:33:16.632Z,101524.31
2023-02-24T01:35:45.646Z,101526.03
2023-02-24T01:38:12.448Z,101522.72
2023-02-24T01:40:39.352Z,101521.31
2023-02-24T01:43:09.098Z,101516.31
2023-02-24T01:45:37.261Z,101513.56
2023-02-24T01:48:06.717Z,101506.59
2023-02-24T01:50:36.225Z,101506.03
2023-02-24T01:53:05.672Z,101503.00
2023-02-24T01:55:34.721Z,101504.72
2023-02-24T01:58:05.116Z,101500.53
2023-02-24T02:00:34.952Z,101501.97
2023-02-24T02:03:04.328Z,101498.91
2023-02-24T02:05:31.025Z,101503.41
2023-02-24T02:07:58.013Z,101497.28
2023-02-24T02:10:25.663Z,101500.69
2023-02-24T02:12:52.402Z,101499.59
2023-02-24T02:15:20.934Z,101490.94
2023-02-24T02:17:51.440Z,101480.28
2023-02-24T02:49:57.774Z,101441.00
2023-02-24T02:52:32.170Z,101443.88
2023-02-24T02:55:03.989Z,101446.16
2023-02-24T02:57:31.784Z,101441.94
2023-02-24T03:00:01.819Z,101437.78
2023-02-24T03:02:31.344Z,101437.78
2023-02-24T03:05:00.371Z,101424.34
2023-02-24T03:07:32.072Z,101422.94
2023-02-24T03:10:01.541Z,101417.09
2023-02-24T03:12:31.035Z,101408.97
2023-02-24T03:14:59.598Z,101407.59
2023-02-24T03:17:30.320Z,101407.03
2023-02-24T03:20:00.580Z,101396.44
2023-02-24T03:22:34.771Z,101390.53
2023-02-24T03:25:04.071Z,101388.31
2023-02-24T03:27:35.568Z,101391.44
2023-02-24T03:30:07.433Z,101383.59
2023-02-24T03:32:44.381Z,101384.97
2023-02-24T03:35:15.609Z,101368.47
2023-02-24T03:37:42.722Z,101371.59
2023-02-24T03:40:14.797Z,101366.28
2023-02-24T03:42:44.121Z,101366.31
2023-02-24T03:45:11.599Z,101360.47
2023-02-24T03:47:40.937Z,101349.53
2023-02-24T03:50:11.818Z,101354.63
2023-02-24T03:52:41.765Z,101347.63
2023-02-24T03:55:10.327Z,101350.72
2023-02-24T03:57:50.459Z,101359.44
2023-02-24T04:00:24.296Z,101346.28
2023-02-24T04:02:57.550Z,101348.53
2023-02-24T04:05:27.744Z,101337.09
2023-02-24T04:07:58.006Z,101336.25
2023-02-24T04:10:31.708Z,101327.88
2023-02-24T04:13:02.377Z,101324.22
2023-02-24T04:15:32.920Z,101316.13
2023-02-24T04:18:01.660Z,101321.50
2023-02-24T04:20:31.332Z,101322.63
2023-02-24T04:23:01.364Z,101313.66
2023-02-24T04:25:28.407Z,101312.28
2023-02-24T04:27:58.495Z,101306.94
2023-02-24T04:30:27.340Z,101302.19
2023-02-24T04:32:54.333Z,101298.03
2023-02-24T04:35:23.065Z,101292.16
2023-02-24T04:37:51.270Z,101291.63
2023-02-24T04:40:18.962Z,101290.22
2023-02-24T04:42:47.196Z,101292.50
2023-02-24T04:45:16.645Z,101295.06
2023-02-24T04:47:46.430Z,101286.66
2023-02-24T04:50:23.160Z,101284.44
2023-02-24T04:52:50.880Z,101281.94
2023-02-24T04:55:18.612Z,101276.63
2023-02-24T04:57:46.236Z,101283.34
2023-02-24T05:00:20.931Z,101278.88
2023-02-24T05:02:48.626Z,101276.38
2023-02-24T05:05:15.981Z,101272.16
2023-02-24T05:07:47.840Z,101272.47
2023-02-24T05:10:15.621Z,101267.41
2023-02-24T05:12:42.796Z,101258.16
2023-02-24T05:15:09.925Z,101257.94
2023-02-24T05:17:36.872Z,101266.34
2023-02-24T05:20:07.360Z,101252.09
2023-02-24T05:22:36.386Z,101259.09
2023-02-24T05:25:05.133Z,101254.09
2023-02-24T05:27:32.073Z,101256.03
2023-02-24T05:29:58.801Z,101245.41
2023-02-24T05:32:25.674Z,101244.00
2023-02-24T05:34:52.647Z,101228.06
2023-02-24T05:37:19.434Z,101225.59
2023-02-24T05:39:46.224Z,101216.63
2023-02-24T05:42:13.114Z,101208.22
2023-02-24T05:44:39.837Z,101216.91
2023-02-24T05:47:10.632Z,101211.91
2023-02-24T05:49:38.964Z,101205.47
2023-02-24T05:52:09.263Z,101210.53
2023-02-24T05:54:38.864Z,101208.00
2023-02-24T05:57:09.378Z,101195.13
2023-02-24T05:59:36.312Z,101194.03
2023-02-24T06:02:07.817Z,101178.09
2023-02-24T06:04:38.447Z,101182.31
2023-02-24T06:07:06.215Z,101183.72
2023-02-24T06:09:33.051Z,101177.28
2023-02-24T06:11:59.857Z,101170.59
2023-02-24T06:14:28.456Z,101172.28
2023-02-24T06:16:55.174Z,101170.06
2023-02-24T06:19:21.967Z,101170.06
2023-02-24T06:21:49.023Z,101162.25
2023-02-24T06:24:15.999Z,101157.75
2023-02-24T06:26:44.221Z,101153.59
2023-02-24T06:29:15.332Z,101155.03
2023-02-24T06:31:43.278Z,101141.59
2023-02-24T06:34:10.801Z,101141.31
2023-02-24T06:36:38.258Z,101132.91
2023-02-24T06:39:08.321Z,101133.50
2023-02-24T06:41:35.749Z,101129.59
2023-02-24T06:44:02.514Z,101132.41
2023-02-24T06:46:29.397Z,101137.47
2023-02-24T06:48:58.219Z,101132.16
2023-02-24T06:51:24.944Z,101137.75
2023-02-24T06:53:52.386Z,101130.19
2023-02-24T06:56:20.023Z,101132.72
2023-02-24T06:58:48.168Z,101135.47
2023-02-24T07:01:16.390Z,101135.97
2023-02-24T07:04:02.922Z,101125.56
2023-02-24T07:06:31.372Z,101128.59
2023-02-24T07:08:58.715Z,101124.63
2023-02-24T07:11:28.325Z,101133.53
2023-02-24T07:13:55.295Z,101133.19
2023-02-24T07:16:26.405Z,101131.72
2023-02-24T07:18:56.988Z,101128.59
2023-02-24T07:21:25.000Z,101129.06
2023-02-24T07:23:58.910Z,101123.97
2023-02-24T07:26:26.980Z,101120.28
2023-02-24T07:28:56.816Z,101119.09
2023-02-24T07:31:25.121Z,101124.34
2023-02-24T07:33:56.866Z,101117.31
2023-02-24T07:36:24.554Z,101110.47
2023-02-24T07:38:53.141Z,101113.47
2023-02-24T07:41:23.266Z,101113.72
2023-02-24T07:43:51.893Z,101116.47
2023-02-24T07:46:21.606Z,101115.56
2023-02-24T07:48:48.351Z,101116.97
2023-02-24T07:51:16.968Z,101120.84
2023-02-24T07:53:48.738Z,101124.69
2023-02-24T07:56:19.767Z,101116.53
2023-02-24T07:58:53.350Z,101114.78
2023-02-24T08:01:23.538Z,101113.66
2023-02-24T08:03:52.344Z,101099.88
2023-02-24T08:06:27.478Z,101107.69
2023-02-24T08:08:59.025Z,101095.88
2023-02-24T08:11:26.801Z,101090.47
2023-02-24T08:13:54.029Z,101088.75
2023-02-24T08:16:20.860Z,101089.81
2023-02-24T08:18:49.388Z,101089.22
2023-02-24T08:21:17.083Z,101089.44
2023-02-24T08:23:45.225Z,101091.34
2023-02-24T08:26:13.041Z,101091.88
2023-02-24T08:28:40.474Z,101090.97
2023-02-24T08:31:07.462Z,101095.69
2023-02-24T08:33:37.557Z,101084.09
2023-02-24T08:36:04.586Z,101100.88
2023-02-24T08:38:40.147Z,101094.63
2023-02-24T08:41:11.925Z,101099.66
2023-02-24T08:43:39.820Z,101085.31
2023-02-24T08:46:12.867Z,101085.56
2023-02-24T08:48:42.623Z,101088.03
2023-02-24T08:51:12.331Z,101076.50
2023-02-24T08:53:40.839Z,101080.66
2023-02-24T08:56:11.641Z,101066.03
2023-02-24T08:58:46.722Z,101079.44
2023-02-24T09:01:20.757Z,101066.47
2023-02-24T09:03:49.047Z,101071.78
2023-02-24T09:06:25.565Z,101077.91
2023-02-24T09:09:13.852Z,101066.09
2023-02-24T09:11:44.305Z,101065.47
2023-02-24T09:14:32.219Z,101053.94
2023-02-24T09:17:02.652Z,101048.53
2023-02-24T09:19:35.917Z,101039.47
2023-02-24T09:22:21.204Z,101041.16
2023-02-24T09:24:51.315Z,101033.25
2023-02-24T09:27:18.954Z,101031.81
2023-02-24T09:29:49.583Z,101028.69
2023-02-24T09:32:16.578Z,101029.00
2023-02-24T09:34:44.639Z,101022.75
2023-02-24T09:37:17.691Z,101021.63
2023-02-24T09:39:50.461Z,101016.00
2023-02-24T09:42:20.738Z,101014.31
2023-02-24T09:44:52.998Z,101007.03
2023-02-24T09:47:25.961Z,101013.50
2023-02-24T09:49:56.804Z,100999.78
2023-02-24T09:52:39.982Z,100996.97
2023-02-24T09:55:12.906Z,100996.34
2023-02-24T09:58:05.961Z,100993.22
2023-02-24T10:00:33.885Z,101001.84
2023-02-24T10:03:04.078Z,100996.16
2023-02-24T10:05:38.877Z,100996.97
2023-02-24T10:08:13.997Z,100995.50
2023-02-24T10:11:01.073Z,100994.38
2023-02-24T10:13:32.816Z,100998.84
2023-02-24T10:16:06.356Z,101000.19
2023-02-24T10:18:36.412Z,101007.19
2023-02-24T10:21:15.735Z,100995.94
2023-02-24T10:23:45.852Z,100997.09
2023-02-24T10:26:22.252Z,100991.13
2023-02-24T10:28:53.757Z,100992.31
2023-02-24T10:31:27.218Z,100988.06
2023-02-24T10:33:57.597Z,100989.50
2023-02-24T10:36:35.780Z,100993.44
2023-02-24T10:39:08.753Z,100990.09
2023-02-24T10:41:40.257Z,100999.38
2023-02-24T10:44:11.829Z,100992.41
2023-02-24T10:46:42.172Z,100993.53
2023-02-24T10:49:11.995Z,100991.03
2023-02-24T10:51:40.726Z,100995.00
2023-02-24T10:54:11.065Z,100997.81
2023-02-24T10:56:44.835Z,101002.59
2023-02-24T10:59:17.764Z,101000.09
2023-02-24T11:01:55.204Z,100991.66
2023-02-24T11:04:33.684Z,100992.50
2023-02-24T11:07:09.956Z,100985.84
2023-02-24T11:09:45.877Z,100992.28
2023-02-24T11:12:16.317Z,100991.75
2023-02-24T11:14:49.496Z,100978.84
2023-02-24T11:17:20.418Z,100980.31
2023-02-24T11:19:50.712Z,100980.94
2023-02-24T11:22:20.712Z,100985.19
2023-02-24T11:24:48.560Z,100979.56
2023-02-24T11:27:20.725Z,100975.94
2023-02-24T11:29:58.809Z,100970.94
2023-02-24T11:32:30.563Z,100967.94
2023-02-24T11:35:00.590Z,100973.00
2023-02-24T11:37:34.879Z,100971.66
2023-02-24T11:40:06.631Z,100957.72
2023-02-24T11:42:38.267Z,100964.25
2023-02-24T11:45:09.532Z,100965.41
2023-02-24T11:47:41.677Z,100959.78
2023-02-24T11:50:09.251Z,100954.59
2023-02-24T11:52:39.065Z,100956.03
2023-02-24T11:55:12.738Z,100950.09
2023-02-24T11:57:42.287Z,100952.06
2023-02-24T12:00:13.663Z,100949.66
2023-02-24T12:02:43.783Z,100949.66
2023-02-24T12:05:13.974Z,100941.88
2023-02-24T12:07:42.920Z,100941.03
2023-02-24T12:10:16.961Z,100943.00
2023-02-24T12:12:47.299Z,100932.41
2023-02-24T12:15:20.321Z,100932.50
2023-02-24T12:17:50.183Z,100937.56
2023-02-24T12:20:20.234Z,100936.75
2023-02-24T12:22:52.578Z,100930.91
2023-02-24T12:25:25.465Z,100932.06
2023-02-24T12:27:55.343Z,100934.59
2023-02-24T12:30:34.484Z,100939.16
2023-02-24T12:33:09.398Z,100934.25
2023-02-24T12:35:39.744Z,100930.91
2023-02-24T12:38:09.705Z,100928.72
2023-02-24T12:40:39.623Z,100918.44
2023-02-24T12:43:09.810Z,100920.09
2023-02-24T12:45:39.809Z,100915.00
2023-02-24T12:48:07.025Z,100919.25
2023-02-24T12:50:37.556Z,100921.22
2023-02-24T12:53:09.328Z,100912.81
2023-02-24T12:55:44.364Z,100908.97
2023-02-24T12:58:12.656Z,100917.91
2023-02-24T13:00:42.519Z,100909.25
2023-02-24T13:03:12.451Z,100908.75
2023-02-24T13:05:45.865Z,100909.88
2023-02-24T13:08:17.117Z,100909.88
2023-02-24T13:10:47.176Z,100899.88
2023-02-24T13:13:17.095Z,100901.63
2023-02-24T13:15:47.173Z,100896.84
2023-02-24T13:18:23.560Z,100897.16
2023-02-24T13:21:02.504Z,100907.00
2023-02-24T13:23:29.370Z,100898.38
2023-02-24T13:25:56.403Z,100885.50
2023-02-24T13:28:26.311Z,100900.97
2023-02-24T13:30:56.283Z,100898.75
2023-02-24T13:33:27.477Z,100887.88
2023-02-24T13:36:06.971Z,100892.09
2023-02-24T13:38:38.960Z,100885.16
2023-02-24T13:41:07.299Z,100880.66
2023-02-24T13:43:34.359Z,100872.56
2023-02-24T13:46:04.579Z,100869.75
2023-02-24T13:48:32.828Z,100864.47
2023-02-24T13:51:02.761Z,100869.25
2023-02-24T13:53:34.815Z,100869.47
2023-02-24T13:56:05.286Z,100866.94
2023-02-24T13:58:35.283Z,100854.38
2023-02-24T14:01:05.245Z,100852.72
2023-02-24T14:03:32.829Z,100853.00
2023-02-24T14:06:00.425Z,100851.38
2023-02-24T14:08:35.806Z,100852.19
2023-02-24T14:11:04.227Z,100855.53
2023-02-24T14:13:34.459Z,100853.00
2023-02-24T14:16:02.002Z,100851.88
2023-02-24T14:18:31.380Z,100849.91
2023-02-24T14:20:58.781Z,100845.44
2023-02-24T14:23:27.370Z,100848.25
2023-02-24T14:25:57.448Z,100848.03
2023-02-24T14:28:29.014Z,100827.28
2023-02-24T14:30:58.798Z,100832.88
2023-02-24T14:33:29.065Z,100833.19
2023-02-24T14:35:56.157Z,100837.13
2023-02-24T14:38:26.124Z,100838.28
2023-02-24T14:40:56.314Z,100834.09
2023-02-24T14:43:23.247Z,100838.34
2023-02-24T14:45:54.689Z,100839.19
2023-02-24T14:48:24.614Z,100841.44
2023-02-24T14:50:54.946Z,100842.91
2023-02-24T14:53:24.285Z,100852.69
2023-02-24T14:55:56.252Z,100839.81
2023-02-24T14:58:29.652Z,100832.25
2023-02-24T15:01:00.740Z,100835.66
2023-02-24T15:03:30.959Z,100836.50
2023-02-24T15:06:00.437Z,100835.13
2023-02-24T15:08:32.075Z,100835.13
2023-02-24T15:10:59.083Z,100834.00
2023-02-24T15:13:29.071Z,100834.00
2023-02-24T15:15:57.353Z,100823.06
2023-02-24T15:18:26.708Z,100832.66
2023-02-24T15:20:56.642Z,100829.00
2023-02-24T15:23:26.340Z,100823.69
2023-02-24T15:25:53.184Z,100821.72
2023-02-24T15:28:23.198Z,100827.34
2023-02-24T15:30:53.990Z,100816.13
2023-02-24T15:33:23.625Z,100820.69
2023-02-24T15:35:54.226Z,100814.78
2023-02-24T15:38:24.168Z,100810.59
2023-02-24T15:40:53.187Z,100812.06
2023-02-24T15:43:32.026Z,100809.25
2023-02-24T15:45:59.109Z,100800.00
2023-02-24T15:48:29.966Z,100801.13
2023-02-24T15:51:02.476Z,100798.03
2023-02-24T15:53:29.329Z,100806.75
2023-02-24T15:55:56.236Z,100808.19
2023-02-24T15:58:23.375Z,100806.19
2023-02-24T16:00:52.668Z,100812.13
2023-02-24T16:03:19.868Z,100800.59
2023-02-24T16:05:47.209Z,100802.19
2023-02-24T16:08:17.436Z,100807.94
2023-02-24T16:10:44.657Z,100812.34
2023-02-24T16:13:19.401Z,100820.38
2023-02-24T16:15:47.029Z,100818.13
2023-02-24T16:18:21.624Z,100823.94
2023-02-24T16:20:54.880Z,100827.50
2023-02-24T16:23:25.790Z,100830.72
2023-02-24T16:25:55.552Z,100837.63
2023-02-24T16:28:23.359Z,100847.31
2023-02-24T16:30:52.917Z,100846.09
2023-02-24T16:33:22.751Z,100849.31
2023-02-24T16:35:53.586Z,100850.91
2023-02-24T16:38:23.297Z,100856.94
2023-02-24T16:40:50.304Z,100863.28
2023-02-24T16:43:17.290Z,100866.84
2023-02-24T16:45:45.378Z,100870.69
2023-02-24T16:48:16.927Z,100879.03
2023-02-24T16:50:44.162Z,100878.13
2023-02-24T16:53:14.493Z,100881.97
2023-02-24T16:55:43.594Z,100891.16
2023-02-24T16:58:11.833Z,100888.53
2023-02-24T17:00:40.348Z,100888.75
2023-02-24T17:03:13.764Z,100883.66
2023-02-24T17:05:41.293Z,100891.16
2023-02-24T17:08:10.704Z,100886.38
2023-02-24T17:10:40.555Z,100898.94
2023-02-24T17:13:08.086Z,100898.03
2023-02-24T17:15:35.285Z,100899.69
2023-02-24T17:18:05.626Z,100907.81
2023-02-24T17:20:33.197Z,100911.97
2023-02-24T17:23:00.411Z,100908.84
2023-02-24T17:25:31.379Z,100911.66
2023-02-24T17:27:59.123Z,100913.00
2023-02-24T17:30:28.726Z,100910.19
2023-02-24T17:32:56.907Z,100912.16
2023-02-24T17:35:24.206Z,100923.41
2023-02-24T17:37:51.436Z,100931.00
2023-02-24T17:40:18.735Z,100931.31
2023-02-24T17:42:45.889Z,100920.69
2023-02-24T17:45:14.430Z,100927.78
2023-02-24T17:47:41.917Z,100932.34
2023-02-24T17:50:12.151Z,100934.09
2023-02-24T17:52:39.677Z,100938.34
2023-02-24T17:55:07.889Z,100940.84
2023-02-24T17:57:35.449Z,100942.63
2023-02-24T18:00:05.049Z,100945.72
2023-02-24T18:02:31.978Z,100951.34
2023-02-24T18:04:58.956Z,100953.31
2023-02-24T18:07:25.831Z,100965.16
2023-02-24T18:09:52.812Z,100961.22
2023-02-24T18:12:21.329Z,100966.00
2023-02-24T18:15:05.860Z,100972.75
2023-02-24T18:17:37.369Z,100977.81
2023-02-24T18:20:05.303Z,100978.66
2023-02-24T18:22:34.413Z,100983.22
2023-02-24T18:25:01.455Z,100984.88
2023-02-24T18:27:28.392Z,100987.78
2023-02-24T18:29:55.426Z,100980.50
2023-02-24T18:32:23.331Z,100983.63
2023-02-24T18:34:50.261Z,100992.34
2023-02-24T18:37:17.061Z,100996.28
2023-02-24T18:39:43.923Z,100992.69
2023-02-24T18:42:11.905Z,100996.94
2023-02-24T18:44:38.901Z,101000.66
2023-02-24T18:47:11.639Z,101006.91
2023-02-24T18:49:38.712Z,101004.38
2023-02-24T18:52:07.691Z,101006.66
2023-02-24T18:54:34.966Z,101014.00
2023-02-24T18:57:02.250Z,101026.69
2023-02-24T18:59:29.205Z,101018.56
2023-02-24T19:01:57.212Z,101028.66
2023-02-24T19:04:25.499Z,101017.50
2023-02-24T19:06:54.707Z,101023.41
2023-02-24T19:09:22.625Z,101024.31
2023-02-24T19:11:50.315Z,101018.47
2023-02-24T19:14:17.211Z,101024.69
2023-02-24T19:16:44.396Z,101028.41
2023-02-24T19:19:12.594Z,101029.03
2023-02-24T19:21:39.451Z,101028.47
2023-02-24T19:24:08.572Z,101034.69
2023-02-24T19:26:37.678Z,101029.38
2023-02-24T19:29:04.812Z,101036.97
2023-02-24T19:31:33.394Z,101033.09
2023-02-24T19:34:02.572Z,101030.91
2023-02-24T19:36:31.056Z,101035.44
2023-02-24T19:38:57.838Z,101039.06
2023-02-24T19:41:24.945Z,101040.22
2023-02-24T19:43:51.775Z,101045.28
2023-02-24T19:46:18.707Z,101051.47
2023-02-24T19:48:46.987Z,101050.66
2023-02-24T19:51:15.540Z,101061.31
2023-02-24T19:53:42.370Z,101067.53
2023-02-24T19:56:09.155Z,101068.66
2023-02-24T19:58:36.273Z,101066.44
2023-02-24T20:01:05.017Z,101072.34
2023-02-24T20:03:31.890Z,101078.25
2023-02-24T20:05:58.781Z,101083.28
2023-02-24T20:08:25.686Z,101079.41
2023-02-24T20:10:57.807Z,101081.38
2023-02-24T20:13:24.585Z,101083.63
2023-02-24T20:15:51.368Z,101080.59
2023-02-24T20:18:18.288Z,101085.97
2023-02-24T20:20:46.650Z,101082.31
2023-02-24T20:23:13.438Z,101079.00
2023-02-24T20:25:41.370Z,101089.38
2023-02-24T20:28:08.152Z,101095.00
2023-02-24T20:30:37.156Z,101093.63
2023-02-24T20:33:04.092Z,101095.34
2023-02-24T20:35:30.887Z,101100.44
2023-02-24T20:37:57.731Z,101111.63
2023-02-24T20:40:24.629Z,101112.19
2023-02-24T20:42:53.698Z,101121.75
2023-02-24T20:45:20.610Z,101121.78
2023-02-24T20:47:47.375Z,101122.09
2023-02-24T20:50:15.000Z,101130.25
2023-02-24T20:52:41.787Z,101124.91
2023-02-24T20:55:10.805Z,101128.00
2023-02-24T20:57:37.631Z,101129.44
2023-02-24T21:00:08.408Z,101130.88
2023-02-24T21:02:36.734Z,101143.47
2023-02-24T21:05:05.909Z,101148.25
2023-02-24T21:07:32.726Z,101146.88
2023-02-24T21:10:01.843Z,101153.88
2023-02-24T21:12:28.699Z,101148.59
2023-02-24T21:14:55.539Z,101141.31
2023-02-24T21:17:22.473Z,101144.41
2023-02-24T21:19:49.994Z,101148.03
2023-02-24T21:22:16.833Z,101151.13
2023-02-24T21:24:43.676Z,101143.03
2023-02-24T21:27:12.906Z,101144.44
2023-02-24T21:29:40.724Z,101149.19
2023-02-24T21:32:07.723Z,101147.81
2023-02-24T21:34:35.065Z,101169.66
2023-02-24T21:37:01.970Z,101159.59
2023-02-24T21:39:28.927Z,101165.47
2023-02-24T21:41:55.799Z,101160.47
2023-02-24T21:44:22.555Z,101159.63
2023-02-24T21:46:50.009Z,101159.91
2023-02-24T21:49:18.369Z,101161.34
2023-02-24T21:51:46.670Z,101159.66
2023-02-24T21:54:14.438Z,101172.81
2023-02-24T21:56:41.646Z,101173.09
2023-02-24T21:59:09.342Z,101175.06
2023-02-24T22:01:38.347Z,101174.50
2023-02-24T22:04:07.315Z,101175.63
2023-02-24T22:06:34.711Z,101174.78
2023-02-24T22:09:01.924Z,101184.28
2023-02-24T22:11:32.542Z,101182.34
2023-02-24T22:13:59.292Z,101183.44
2023-02-24T22:16:26.579Z,101177.00
2023-02-24T22:18:55.378Z,101176.13
2023-02-24T22:21:24.633Z,101174.97
2023-02-24T22:23:52.506Z,101178.56
2023-02-24T22:26:19.888Z,101184.13
2023-02-24T22:28:49.496Z,101180.75
2023-02-24T22:31:17.888Z,101184.34
2023-02-24T22:33:44.858Z,101187.13
2023-02-24T22:36:12.808Z,101188.16
2023-02-24T22:38:40.003Z,101194.25
2023-02-24T22:41:08.134Z,101197.25
2023-02-24T22:43:35.330Z,101190.50
2023-02-24T22:46:04.409Z,101188.78
2023-02-24T22:48:34.941Z,101199.66
2023-02-24T22:51:03.196Z,101189.50
2023-02-24T22:53:33.789Z,101182.19
2023-02-24T22:56:00.566Z,101191.91
2023-02-24T22:58:29.727Z,101194.09
2023-02-24T23:00:56.635Z,101201.06
2023-02-24T23:03:24.666Z,101193.44
2023-02-24T23:05:54.481Z,101191.38
2023-02-24T23:08:21.248Z,101189.06
2023-02-24T23:10:48.057Z,101201.06
2023-02-24T23:13:14.888Z,101199.03
2023-02-24T23:15:41.688Z,101203.72
2023-02-24T23:18:08.549Z,101196.09
2023-02-24T23:20:35.312Z,101199.69
2023-02-24T23:23:02.116Z,101201.88
2023-02-24T23:25:30.230Z,101204.63
2023-02-24T23:27:59.628Z,101205.41
2023-02-24T23:30:26.455Z,101208.16
2023-02-24T23:32:53.378Z,101202.78
2023-02-24T23:35:20.281Z,101213.13
2023-02-24T23:37:47.078Z,101220.63
2023-02-24T23:40:15.485Z,101227.03
2023-02-24T23:42:42.996Z,101225.28
2023-02-24T23:45:10.935Z,101225.22
2023-02-24T23:47:38.723Z,101223.75
2023-02-24T23:50:06.030Z,101230.16
2023-02-24T23:52:34.984Z,101238.50
2023-02-24T23:55:02.531Z,101233.09
2023-02-24T23:57:30.058Z,101240.63
2023-02-24T23:59:57.799Z,101232.75
